createdAt,value
2023-04-28T00:06:41.636Z,55.77
2023-04-28T00:16:46.433Z,55.95
2023-04-28T00:26:49.568Z,59.44
2023-04-28T00:36:53.968Z,60.70
2023-04-28T00:46:57.785Z,62.18
2023-04-28T00:57:03.229Z,67.92
2023-04-28T01:07:06.431Z,69.99
2023-04-28T01:17:12.120Z,68.85
2023-04-28T01:27:17.747Z,70.31
2023-04-28T01:37:20.922Z,73.04
2023-04-28T01:47:26.104Z,74.69
2023-04-28T01:57:29.590Z,75.09
2023-04-28T02:07:35.213Z,76.37
2023-04-28T02:17:39.873Z,75.71
2023-04-28T02:39:52.158Z,78.94
2023-04-28T02:49:57.212Z,79.87
2023-04-28T03:00:01.788Z,82.51
2023-04-28T03:10:11.582Z,84.21
2023-04-28T03:20:16.624Z,85.27
2023-04-28T03:30:20.943Z,86.82
2023-04-28T03:40:25.985Z,86.70
2023-04-28T03:50:47.179Z,87.51
2023-04-28T04:00:52.114Z,88.13
2023-04-28T04:10:56.172Z,88.96
2023-04-28T04:21:00.725Z,89.73
2023-04-28T04:31:04.583Z,88.83
2023-04-28T04:41:09.271Z,88.09
2023-04-28T04:51:12.563Z,88.16
2023-04-28T05:01:17.111Z,88.85
2023-04-28T05:11:20.555Z,89.77
2023-04-28T05:21:25.036Z,90.69
2023-04-28T05:31:28.119Z,92.01
2023-04-28T05:41:32.782Z,93.13
2023-04-28T05:51:35.874Z,93.76
2023-04-28T06:01:40.405Z,92.69
2023-04-28T06:11:43.398Z,92.00
2023-04-28T06:21:50.456Z,90.88
2023-04-28T06:31:57.846Z,91.92
2023-04-28T06:42:03.226Z,92.00
2023-04-28T06:52:09.677Z,92.04
2023-04-28T07:02:15.024Z,92.17
2023-04-28T07:12:19.161Z,92.17
2023-04-28T07:22:23.599Z,92.58
2023-04-28T07:32:30.471Z,90.94
2023-04-28T07:42:34.469Z,92.63
2023-04-28T07:52:38.205Z,91.21
2023-04-28T08:02:42.651Z,91.99
2023-04-28T08:12:46.495Z,91.84
2023-04-28T08:22:50.646Z,91.29
2023-04-28T08:32:54.149Z,90.86
2023-04-28T08:42:58.531Z,91.58
2023-04-28T08:53:05.467Z,91.50
2023-04-28T09:03:10.279Z,92.10
2023-04-28T09:13:26.236Z,92.69
2023-04-28T09:23:30.759Z,92.80
2023-04-28T09:33:33.789Z,92.50
2023-04-28T09:43:38.737Z,94.80
2023-04-28T09:53:44.283Z,96.38
2023-04-28T10:03:51.181Z,97.44
2023-04-28T10:13:55.360Z,97.82
2023-04-28T10:24:11.424Z,99.44
2023-04-28T10:34:24.529Z,100.00
2023-04-28T10:44:44.287Z,100.00
2023-04-28T10:55:28.830Z,100.00
2023-04-28T11:05:34.740Z,100.00
2023-04-28T11:15:37.604Z,100.00
2023-04-28T11:36:09.377Z,100.00
2023-04-28T11:46:17.994Z,100.00
2023-04-28T11:56:22.557Z,100.00
2023-04-28T12:06:25.647Z,100.00
2023-04-28T12:16:48.558Z,100.00
2023-04-28T12:26:51.718Z,100.00
2023-04-28T12:36:56.185Z,100.00
2023-04-28T12:46:59.162Z,100.00
2023-04-28T12:57:04.066Z,97.25
2023-04-28T13:07:07.875Z,89.41
2023-04-28T13:17:13.701Z,81.41
2023-04-28T13:27:16.809Z,86.65
2023-04-28T13:37:21.248Z,100.00
2023-04-28T13:47:24.621Z,97.30
2023-04-28T13:57:29.075Z,98.42
2023-04-28T14:07:31.782Z,99.41
2023-04-28T14:17:36.677Z,99.38
2023-04-28T14:27:40.511Z,92.10
2023-04-28T14:37:45.245Z,89.49
2023-04-28T14:47:48.722Z,93.99
2023-04-28T14:57:53.262Z,87.52
2023-04-28T15:07:57.264Z,80.75
2023-04-28T15:18:02.258Z,75.90
2023-04-28T15:28:07.234Z,74.68
2023-04-28T15:38:12.262Z,69.31
2023-04-28T15:48:15.634Z,70.25
2023-04-28T15:58:20.494Z,67.22
2023-04-28T16:08:25.416Z,66.30
2023-04-28T16:18:30.293Z,67.89
2023-04-28T16:28:33.552Z,68.24
2023-04-28T16:38:38.207Z,72.89
2023-04-28T16:48:41.174Z,73.79
2023-04-28T16:58:45.410Z,75.66
2023-04-28T17:08:50.643Z,78.08
2023-04-28T17:18:55.294Z,77.92
2023-04-28T17:28:59.973Z,78.37
2023-04-28T17:39:05.148Z,77.59
2023-04-28T17:49:08.640Z,76.73
2023-04-28T17:59:14.513Z,75.67
2023-04-28T18:09:17.872Z,74.24
2023-04-28T18:19:23.412Z,75.14
2023-04-28T18:29:26.665Z,76.45
2023-04-28T18:39:30.998Z,75.29
2023-04-28T18:49:34.704Z,74.23
2023-04-28T18:59:40.118Z,73.21
2023-04-28T19:09:43.379Z,72.80
2023-04-28T19:19:48.139Z,73.35
2023-04-28T19:29:52.409Z,74.06
2023-04-28T19:39:57.074Z,74.73
2023-04-28T19:50:00.143Z,74.92
2023-04-28T20:00:05.189Z,75.12
2023-04-28T20:10:12.823Z,76.47
2023-04-28T20:20:17.109Z,77.51
2023-04-28T20:30:23.858Z,77.85
2023-04-28T20:40:28.350Z,77.38
2023-04-28T20:50:33.458Z,78.33
2023-04-28T21:00:40.521Z,80.04
2023-04-28T21:10:43.735Z,80.29
2023-04-28T21:20:48.341Z,79.20
2023-04-28T21:30:52.967Z,78.15
2023-04-28T21:40:58.211Z,77.38
2023-04-28T21:51:01.723Z,77.96
2023-04-28T22:01:07.962Z,78.47
2023-04-28T22:11:11.471Z,78.86
2023-04-28T22:21:16.008Z,83.81
2023-04-28T22:31:18.875Z,89.16
2023-04-28T22:41:24.658Z,91.64
2023-04-28T22:51:28.816Z,91.53
2023-04-28T23:01:33.397Z,91.65
2023-04-28T23:11:37.000Z,91.72
2023-04-28T23:21:41.273Z,91.36
2023-04-28T23:31:44.061Z,91.58
2023-04-28T23:41:48.248Z,88.29
2023-04-28T23:51:51.291Z,86.83
